Time;durP1;ratioP1;P1;durP2;ratioP2;P2;SDS_P1;SDS_P2;PMS_P1;PMS_P2;Temp;Humidity;BMP_temperature;BMP_pressure;BME280_temperature;BME280_humidity;BME280_pressure;Samples;Min_cycle;Max_cycle;Signal;HPM_P1;HPM_P2
2023/05/30 00:01:34;;;;;;;12.13;3.17;;;;;;;10.87;76.49;102790.22;4998841;28;20022;-71
2023/05/30 00:04:00;;;;;;;10.73;2.42;;;;;;;10.87;77.15;102794.63;4997853;28;20124;-71
2023/05/30 00:06:26;;;;;;;11.57;2.78;;;;;;;10.85;76.86;102796.38;4998177;28;20079;-71
2023/05/30 00:08:52;;;;;;;12.13;2.65;;;;;;;10.80;77.29;102791.19;4998040;28;20030;-71
2023/05/30 00:11:18;;;;;;;12.02;2.67;;;;;;;10.79;77.23;102788.56;4998704;28;20356;-71
2023/05/30 00:13:43;;;;;;;12.32;2.35;;;;;;;10.73;77.35;102793.03;4997808;28;20050;-71
2023/05/30 00:16:10;;;;;;;12.82;3.22;;;;;;;10.68;77.65;102797.44;4997550;28;20068;-71
2023/05/30 00:18:36;;;;;;;11.82;2.60;;;;;;;10.69;77.90;102803.53;4997835;28;20034;-71
2023/05/30 00:21:03;;;;;;;8.05;2.40;;;;;;;10.71;78.28;102797.41;4997757;28;20084;-71
2023/05/30 00:23:29;;;;;;;8.95;2.88;;;;;;;10.73;77.62;102800.00;4998039;28;20034;-71
2023/05/30 00:25:56;;;;;;;14.20;2.88;;;;;;;10.79;77.63;102805.19;4983610;28;20057;-71
2023/05/30 00:28:24;;;;;;;12.00;2.65;;;;;;;10.82;77.30;102805.13;4978624;28;20035;-71
2023/05/30 00:30:50;;;;;;;12.60;2.78;;;;;;;10.78;77.50;102806.06;4978604;28;20042;-71
2023/05/30 00:33:15;;;;;;;10.13;2.63;;;;;;;10.76;77.79;102802.59;4978821;28;20039;-71
2023/05/30 00:35:40;;;;;;;16.23;2.40;;;;;;;10.75;77.73;102812.22;4978417;28;20047;-71
2023/05/30 00:38:06;;;;;;;10.35;2.28;;;;;;;10.81;77.57;102802.56;4978187;28;20114;-71
2023/05/30 00:40:31;;;;;;;12.70;2.85;;;;;;;10.76;77.73;102811.31;4978340;28;20042;-71
2023/05/30 00:42:56;;;;;;;12.43;3.03;;;;;;;10.80;77.67;102811.28;4978361;28;20341;-71
2023/05/30 00:45:22;;;;;;;12.48;2.63;;;;;;;10.75;77.22;102814.84;4978459;28;20035;-71
2023/05/30 00:47:50;;;;;;;10.23;2.55;;;;;;;10.74;77.93;102822.72;4978111;28;20042;-71
2023/05/30 00:50:18;;;;;;;7.53;2.53;;;;;;;10.81;77.72;102810.41;4978671;28;20051;-71
2023/05/30 00:52:45;;;;;;;11.52;2.72;;;;;;;10.78;77.84;102813.91;4996440;28;20042;-71
2023/05/30 00:55:10;;;;;;;18.70;3.60;;;;;;;10.82;77.41;102813.00;4997831;28;20281;-71
2023/05/30 00:57:36;;;;;;;11.70;2.40;;;;;;;10.86;77.12;102819.97;5002006;28;20038;-71
2023/05/30 01:00:03;;;;;;;6.15;2.30;;;;;;;10.86;77.21;102811.22;5001176;28;20061;-71
2023/05/30 01:04:55;;;;;;;12.27;2.85;;;;;;;10.79;77.88;102817.41;4997863;28;20034;-71
2023/05/30 01:07:20;;;;;;;15.38;2.42;;;;;;;10.80;77.42;102817.38;5002796;28;20214;-71
2023/05/30 01:09:46;;;;;;;13.82;3.03;;;;;;;10.77;77.63;102817.44;5002123;28;20057;-71
2023/05/30 01:12:20;;;;;;;15.38;3.70;;;;;;;10.75;77.50;102813.94;5001362;28;20534;-71
2023/05/30 01:15:02;;;;;;;10.88;2.72;;;;;;;10.69;77.78;102811.41;5001801;28;20046;-71
2023/05/30 01:18:00;;;;;;;11.05;3.10;;;;;;;10.67;78.06;102810.53;5002073;28;20081;-71
2023/05/30 01:20:27;;;;;;;12.82;2.60;;;;;;;10.67;78.20;102811.41;4991676;28;20045;-71
2023/05/30 01:23:15;;;;;;;11.82;2.38;;;;;;;10.71;78.34;102818.38;5000409;28;20026;-71
2023/05/30 01:26:07;;;;;;;10.68;2.95;;;;;;;10.68;77.93;102818.41;5001325;28;20069;-71
2023/05/30 01:28:36;;;;;;;7.25;2.40;;;;;;;10.71;78.42;102810.50;5001385;28;20026;-71
2023/05/30 01:31:02;;;;;;;;;;;;;;;10.78;78.26;102808.69;4993343;28;20050;-71
2023/05/30 01:33:28;;;;;;;10.02;2.13;;;;;;;10.80;78.12;102806.91;4992477;28;19909;-71
2023/05/30 01:35:53;;;;;;;11.52;2.95;;;;;;;10.92;77.73;102813.78;5000435;28;20199;-71
2023/05/30 01:38:19;;;;;;;9.70;2.13;;;;;;;10.93;77.43;102816.41;5001115;28;20046;-71
2023/05/30 01:40:48;;;;;;;12.18;2.80;;;;;;;10.91;78.04;102814.66;5001194;28;20321;-71
2023/05/30 01:43:32;;;;;;;11.30;2.70;;;;;;;10.88;78.00;102815.56;5000880;28;20026;-72
2023/05/30 01:46:20;;;;;;;9.38;2.85;;;;;;;10.76;78.57;102813.06;5000951;28;20108;-72
2023/05/30 01:49:12;;;;;;;8.90;2.78;;;;;;;10.73;79.03;102815.72;4975911;28;20050;-72
2023/05/30 01:52:00;;;;;;;7.80;3.10;;;;;;;10.77;78.94;102814.81;4998826;28;20069;-72
2023/05/30 01:54:28;;;;;;;13.05;2.22;;;;;;;10.67;79.19;102815.78;5000839;28;20236;-72
2023/05/30 01:57:00;;;;;;;11.63;2.80;;;;;;;10.71;79.21;102826.25;5000118;28;20061;-72
2023/05/30 01:59:27;;;;;;;10.85;2.67;;;;;;;10.67;78.94;102821.03;5000459;28;20030;-72
2023/05/30 02:01:56;;;;;;;11.93;2.50;;;;;;;10.72;79.11;102820.09;4982797;28;20042;-72
2023/05/30 02:04:21;;;;;;;12.35;2.35;;;;;;;10.77;78.92;102827.94;5000088;28;20285;-72
2023/05/30 02:06:46;;;;;;;14.98;2.75;;;;;;;10.78;78.79;102813.91;4999639;28;20045;-72
2023/05/30 02:09:12;;;;;;;13.23;2.75;;;;;;;10.79;79.18;102820.03;5000333;28;20049;-72
2023/05/30 02:11:37;;;;;;;8.32;2.42;;;;;;;10.84;78.66;102824.38;4991585;28;20038;-72
2023/05/30 02:14:04;;;;;;;9.35;2.55;;;;;;;10.87;78.28;102819.06;4980388;28;20259;-72
2023/05/30 02:16:30;;;;;;;8.65;2.72;;;;;;;10.91;78.05;102825.16;4987958;28;20352;-72
2023/05/30 02:18:56;;;;;;;15.75;2.92;;;;;;;10.88;77.85;102823.44;5000327;28;20077;-72
2023/05/30 02:21:21;;;;;;;7.40;2.42;;;;;;;10.89;78.45;102830.41;4999853;28;20054;-72
2023/05/30 02:23:47;;;;;;;7.32;2.65;;;;;;;10.90;78.07;102833.91;4985199;28;20110;-72
2023/05/30 02:26:12;;;;;;;8.27;2.45;;;;;;;10.92;77.75;102835.63;4980445;28;20046;-72
2023/05/30 02:28:38;;;;;;;6.30;2.20;;;;;;;10.94;77.82;102836.47;4980775;28;20034;-72
2023/05/30 02:31:03;;;;;;;5.57;2.33;;;;;;;10.97;77.66;102838.22;4983835;28;20280;-72
2023/05/30 02:33:29;;;;;;;8.52;2.67;;;;;;;10.90;78.06;102831.28;4999570;28;20084;-72
2023/05/30 02:35:54;;;;;;;7.75;2.80;;;;;;;10.93;77.76;102837.38;5000132;28;20113;-72
2023/05/30 02:38:20;;;;;;;11.60;2.50;;;;;;;10.93;77.63;102829.50;4999700;28;20325;-72
2023/05/30 02:40:45;;;;;;;8.38;2.50;;;;;;;10.87;78.28;102829.56;4999810;28;20042;-72
2023/05/30 02:43:12;;;;;;;9.75;2.60;;;;;;;10.90;78.04;102836.53;4982173;28;20388;-72
2023/05/30 02:45:38;;;;;;;8.20;2.28;;;;;;;10.88;78.25;102841.78;4980394;28;20042;-72
2023/05/30 02:48:03;;;;;;;10.68;3.05;;;;;;;10.92;78.05;102832.13;4980151;28;20274;-72
2023/05/30 02:50:28;;;;;;;11.80;2.35;;;;;;;10.88;78.12;102836.53;4980421;28;20046;-72
2023/05/30 02:52:54;;;;;;;7.78;2.40;;;;;;;10.84;78.12;102834.84;4984858;28;20050;-72
2023/05/30 02:55:20;;;;;;;7.82;2.80;;;;;;;10.87;78.16;102840.03;4980060;28;20038;-72
2023/05/30 02:57:45;;;;;;;10.32;2.78;;;;;;;10.88;78.12;102836.53;4980823;28;20073;-72
2023/05/30 03:00:12;;;;;;;8.57;2.97;;;;;;;10.79;78.18;102830.50;4970013;28;20034;-71
2023/05/30 03:02:37;;;;;;;9.57;2.70;;;;;;;10.69;78.40;102835.84;4999461;28;20042;-71
2023/05/30 03:05:03;;;;;;;7.25;2.45;;;;;;;10.68;78.96;102830.63;4980828;28;20045;-71
2023/05/30 03:07:31;;;;;;;9.90;2.80;;;;;;;10.64;78.52;102826.28;4980163;28;20094;-71
2023/05/30 03:09:56;;;;;;;9.98;2.67;;;;;;;10.56;79.16;102824.59;4979792;28;20049;-71
2023/05/30 03:12:22;;;;;;;7.82;2.65;;;;;;;10.64;78.76;102824.56;4979537;28;20054;-71
2023/05/30 03:14:48;;;;;;;13.63;3.53;;;;;;;10.66;78.84;102827.13;4979285;28;20059;-71
2023/05/30 03:17:15;;;;;;;15.18;3.28;;;;;;;10.68;79.13;102825.41;4984003;28;20053;-71
2023/05/30 03:19:41;;;;;;;7.68;3.75;;;;;;;10.64;79.01;102828.91;4998613;28;20030;-71
2023/05/30 03:22:07;;;;;;;9.45;2.80;;;;;;;10.69;78.97;102829.75;4994526;28;20066;-71
2023/05/30 03:24:33;;;;;;;7.55;2.78;;;;;;;10.60;78.09;102832.44;4999296;28;20030;-71
2023/05/30 03:26:58;;;;;;;11.35;2.67;;;;;;;10.62;77.96;102825.44;4998798;28;20226;-71
2023/05/30 03:29:24;;;;;;;5.13;2.95;;;;;;;10.67;77.88;102827.13;4980376;28;20102;-71
2023/05/30 03:31:49;;;;;;;8.27;2.78;;;;;;;10.67;77.75;102824.50;4980427;28;20047;-71
2023/05/30 03:34:15;;;;;;;12.18;2.53;;;;;;;10.64;77.90;102824.56;4982983;28;20053;-71
2023/05/30 03:36:41;;;;;;;7.30;2.58;;;;;;;10.64;77.66;102827.19;4979593;28;20079;-71
2023/05/30 03:39:06;;;;;;;6.50;2.63;;;;;;;10.68;77.72;102825.41;4986620;28;20028;-71
2023/05/30 03:41:32;;;;;;;8.48;2.60;;;;;;;10.67;77.62;102839.38;4988403;28;20042;-71
2023/05/30 03:43:57;;;;;;;6.97;2.70;;;;;;;10.70;77.86;102834.09;4994786;28;20418;-71
2023/05/30 03:46:23;;;;;;;5.70;2.65;;;;;;;10.71;77.90;102849.81;4978985;28;20442;-71
2023/05/30 03:48:48;;;;;;;11.57;3.08;;;;;;;10.70;77.92;102849.84;4987323;28;20049;-71
2023/05/30 03:51:13;;;;;;;13.82;2.80;;;;;;;10.74;77.38;102849.78;4992439;28;20233;-71
2023/05/30 03:53:41;;;;;;;6.50;2.60;;;;;;;10.69;78.11;102841.06;4998778;28;20042;-70
2023/05/30 03:56:07;;;;;;;9.30;2.83;;;;;;;10.70;78.01;102850.69;4997943;28;20046;-71
2023/05/30 03:58:32;;;;;;;5.43;2.83;;;;;;;10.73;77.76;102852.41;4998348;28;20337;-71
2023/05/30 04:01:00;;;;;;;12.32;2.90;;;;;;;10.71;77.94;102849.81;4989277;28;20057;-71
2023/05/30 04:03:26;;;;;;;3.90;2.50;;;;;;;10.71;77.45;102854.16;4983019;28;20042;-71
2023/05/30 04:05:53;;;;;;;8.88;2.65;;;;;;;10.70;77.94;102852.44;4994126;28;20109;-71
2023/05/30 04:08:18;;;;;;;7.32;2.53;;;;;;;10.76;77.56;102853.25;4998085;28;20042;-71
2023/05/30 04:10:44;;;;;;;9.13;2.63;;;;;;;10.67;77.34;102857.72;4987963;28;20039;-71
2023/05/30 04:13:10;;;;;;;11.95;3.05;;;;;;;10.67;77.21;102850.72;4997813;28;20062;-70
2023/05/30 04:15:35;;;;;;;12.82;2.88;;;;;;;10.67;77.00;102857.72;4987244;28;20061;-71
2023/05/30 04:18:01;;;;;;;7.80;2.42;;;;;;;10.59;76.81;102851.66;4978836;28;20057;-71
2023/05/30 04:20:27;;;;;;;8.25;2.97;;;;;;;10.57;77.17;102857.78;4979625;28;20043;-71
2023/05/30 04:22:52;;;;;;;8.75;2.90;;;;;;;10.63;76.97;102851.63;4997045;28;20216;-71
2023/05/30 04:25:19;;;;;;;5.40;2.47;;;;;;;10.64;76.63;102862.97;4990093;28;20451;-71
2023/05/30 04:27:46;;;;;;;7.82;2.92;;;;;;;10.62;76.72;102867.34;4979005;28;20045;-71
2023/05/30 04:30:11;;;;;;;10.07;2.55;;;;;;;10.59;76.80;102878.75;4991350;28;20042;-71
2023/05/30 04:32:37;;;;;;;9.20;3.17;;;;;;;10.58;77.02;102869.13;4978843;28;20169;-71
2023/05/30 04:35:04;;;;;;;8.00;2.85;;;;;;;10.58;77.10;102863.91;4982851;28;20026;-71
2023/05/30 04:37:29;;;;;;;9.90;3.13;;;;;;;10.59;76.71;102870.00;4994753;28;20399;-71
2023/05/30 04:39:58;;;;;;;6.22;2.75;;;;;;;10.60;76.81;102874.38;4981257;28;20038;-71
2023/05/30 04:42:26;;;;;;;6.90;3.72;;;;;;;10.55;76.82;102872.66;4997966;28;20325;-71
2023/05/30 04:44:53;;;;;;;11.35;3.20;;;;;;;10.64;76.70;102876.06;4995530;28;20034;-71
2023/05/30 04:47:21;;;;;;;8.75;3.30;;;;;;;10.65;76.83;102875.19;4978411;28;20097;-71
2023/05/30 04:49:46;;;;;;;6.63;2.70;;;;;;;10.60;76.91;102872.59;4978773;28;20066;-71
2023/05/30 04:52:12;;;;;;;6.35;2.78;;;;;;;10.64;76.81;102878.69;4998289;28;20565;-71
2023/05/30 04:54:38;;;;;;;12.25;3.15;;;;;;;10.60;77.19;102869.13;4997645;28;20237;-71
2023/05/30 04:57:04;;;;;;;4.63;2.53;;;;;;;10.60;77.13;102869.97;4995824;28;20437;-71
2023/05/30 04:59:30;;;;;;;8.68;3.33;;;;;;;10.54;77.03;102876.16;4997844;28;20037;-70
2023/05/30 05:01:56;;;;;;;8.93;2.78;;;;;;;10.58;77.41;102874.38;4982081;28;20039;-70
2023/05/30 05:04:22;;;;;;;7.70;3.10;;;;;;;10.61;77.27;102870.88;4988186;28;20054;-70
2023/05/30 05:06:47;;;;;;;7.78;3.45;;;;;;;10.66;77.35;102872.56;4993342;28;20353;-70
2023/05/30 05:09:13;;;;;;;11.60;3.15;;;;;;;10.67;76.92;102874.28;4997958;28;20088;-70
2023/05/30 05:11:39;;;;;;;12.18;2.97;;;;;;;10.71;76.99;102872.50;4980019;28;20049;-70
2023/05/30 05:14:04;;;;;;;11.88;4.13;;;;;;;10.75;76.69;102866.34;4977825;28;20066;-71
2023/05/30 05:16:29;;;;;;;10.98;3.50;;;;;;;10.74;76.42;102870.75;4994412;28;20109;-71
2023/05/30 05:18:55;;;;;;;15.80;3.55;;;;;;;10.74;76.47;102868.13;4994146;28;20057;-71
2023/05/30 05:21:20;;;;;;;9.65;3.10;;;;;;;10.73;76.43;102870.75;4996694;28;20413;-71
2023/05/30 05:23:46;;;;;;;6.82;3.05;;;;;;;10.78;76.70;102868.97;4992614;28;20047;-71
2023/05/30 05:26:11;;;;;;;9.38;3.65;;;;;;;10.77;76.07;102877.72;4978218;28;20046;-71
2023/05/30 05:28:37;;;;;;;12.68;3.38;;;;;;;10.82;76.42;102868.03;4996161;28;20049;-71
2023/05/30 05:31:02;;;;;;;9.35;3.47;;;;;;;10.80;76.00;102872.44;4996962;28;20066;-71
2023/05/30 05:33:27;;;;;;;6.00;3.30;;;;;;;10.79;76.07;102872.44;4996121;28;20069;-71
2023/05/30 05:35:53;;;;;;;10.02;3.92;;;;;;;10.80;76.01;102877.66;4997246;28;20234;-70
2023/05/30 05:38:18;;;;;;;7.68;2.67;;;;;;;10.79;75.95;102877.69;4991535;28;20050;-71
2023/05/30 05:40:44;;;;;;;12.18;3.70;;;;;;;10.81;76.17;102870.69;4997615;28;20042;-71
2023/05/30 05:43:10;;;;;;;9.32;2.80;;;;;;;10.83;75.50;102879.41;4992398;28;20040;-71
2023/05/30 05:45:35;;;;;;;4.47;2.88;;;;;;;10.77;75.24;102882.97;4983010;28;20030;-71
2023/05/30 05:48:00;;;;;;;10.95;2.83;;;;;;;10.78;75.29;102882.06;4986970;28;20029;-71
2023/05/30 05:50:26;;;;;;;9.00;2.97;;;;;;;10.78;75.25;102878.59;5000932;28;20120;-71
2023/05/30 05:52:51;;;;;;;9.30;2.95;;;;;;;10.78;75.38;102879.44;4994047;28;20041;-71
2023/05/30 05:55:17;;;;;;;6.18;3.00;;;;;;;10.82;75.29;102888.16;4988413;28;20106;-71
2023/05/30 05:57:42;;;;;;;12.05;3.00;;;;;;;10.83;75.68;102884.66;4999421;28;20294;-71
2023/05/30 06:00:09;;;;;;;10.75;2.70;;;;;;;10.86;75.42;102874.13;5000031;28;20372;-70
2023/05/30 06:02:34;;;;;;;9.65;2.60;;;;;;;10.96;75.53;102878.41;4998668;28;20041;-71
2023/05/30 06:05:00;;;;;;;4.55;2.60;;;;;;;10.97;75.33;102882.78;4999442;28;20042;-71
2023/05/30 06:07:26;;;;;;;13.32;3.10;;;;;;;10.95;75.22;102884.53;4998556;28;20053;-71
2023/05/30 06:09:51;;;;;;;11.00;2.80;;;;;;;10.92;74.74;102888.06;4999579;28;20034;-71
2023/05/30 06:12:16;;;;;;;12.05;3.40;;;;;;;10.94;74.94;102881.03;4999802;28;20093;-71
2023/05/30 06:14:42;;;;;;;10.95;2.95;;;;;;;10.96;74.91;102878.41;4996695;28;20254;-71
2023/05/30 06:17:08;;;;;;;8.13;2.67;;;;;;;10.99;74.86;102890.59;5000028;28;20054;-71
2023/05/30 06:19:33;;;;;;;7.63;2.60;;;;;;;10.99;75.15;102881.00;4984931;28;20030;-71
2023/05/30 06:21:59;;;;;;;11.00;2.97;;;;;;;11.05;74.88;102891.44;4991540;28;20042;-71
2023/05/30 06:24:24;;;;;;;10.77;2.95;;;;;;;11.12;75.05;102884.38;4999521;28;20050;-71
2023/05/30 06:26:50;;;;;;;8.48;2.97;;;;;;;11.11;74.60;102886.13;4997416;28;20272;-71
2023/05/30 06:29:15;;;;;;;7.60;2.55;;;;;;;11.10;74.42;102887.00;4985595;28;20117;-71
2023/05/30 06:31:40;;;;;;;5.93;2.63;;;;;;;11.14;74.18;102882.59;4999144;28;20030;-71
2023/05/30 06:34:06;;;;;;;8.35;2.60;;;;;;;11.14;74.00;102886.09;4997166;28;20038;-71
2023/05/30 06:36:32;;;;;;;9.50;2.78;;;;;;;11.18;73.94;102881.69;4993902;28;20081;-70
2023/05/30 06:38:57;;;;;;;9.05;3.17;;;;;;;11.21;74.34;102900.00;4999378;28;20040;-71
2023/05/30 06:41:23;;;;;;;9.48;3.13;;;;;;;11.26;73.82;102905.19;4998169;28;20048;-71
2023/05/30 06:43:48;;;;;;;11.05;3.53;;;;;;;11.32;73.78;102898.13;4996336;28;20113;-71
2023/05/30 06:46:14;;;;;;;11.50;3.03;;;;;;;11.38;73.59;102894.56;4998655;28;20046;-71
2023/05/30 06:48:39;;;;;;;11.98;2.50;;;;;;;11.44;73.45;102897.16;4995062;28;20047;-71
2023/05/30 06:51:06;;;;;;;6.43;2.22;;;;;;;11.56;73.76;102911.00;4998322;28;20237;-71
2023/05/30 06:53:31;;;;;;;7.43;2.92;;;;;;;11.73;72.87;102906.41;4997448;28;20042;-71
2023/05/30 06:55:56;;;;;;;9.38;2.95;;;;;;;11.76;72.46;102906.38;4998686;28;20038;-71
2023/05/30 06:58:22;;;;;;;10.85;2.97;;;;;;;11.81;72.12;102896.69;4998000;28;20105;-71
2023/05/30 07:00:47;;;;;;;9.77;2.67;;;;;;;11.83;71.94;102902.78;4997786;28;20034;-71
2023/05/30 07:03:12;;;;;;;9.32;2.95;;;;;;;11.92;71.99;102909.72;4998464;28;20275;-71
2023/05/30 07:05:38;;;;;;;11.73;3.38;;;;;;;11.96;71.80;102903.50;4995646;28;20030;-71
2023/05/30 07:08:03;;;;;;;12.77;3.65;;;;;;;11.95;71.70;102906.16;4996753;28;20034;-71
2023/05/30 07:10:29;;;;;;;11.15;3.13;;;;;;;11.92;71.49;102914.09;4996806;28;20038;-70
2023/05/30 07:12:54;;;;;;;11.98;3.03;;;;;;;11.84;71.11;102901.91;4984704;28;20049;-71
2023/05/30 07:15:20;;;;;;;10.05;2.90;;;;;;;11.84;71.31;102911.50;4998028;28;20034;-71
2023/05/30 07:17:45;;;;;;;12.98;3.40;;;;;;;11.91;71.52;102900.06;4999204;28;20101;-71
2023/05/30 07:20:11;;;;;;;8.18;3.10;;;;;;;12.03;71.39;102902.53;4998450;28;20034;-71
2023/05/30 07:22:38;;;;;;;12.80;2.83;;;;;;;12.13;71.63;102905.91;4998564;28;20034;-71
2023/05/30 07:25:05;;;;;;;13.93;3.20;;;;;;;12.17;71.67;102906.72;4997921;28;20052;-71
2023/05/30 07:27:31;;;;;;;10.18;3.05;;;;;;;12.15;71.20;102913.75;4998865;28;20232;-71
2023/05/30 07:29:56;;;;;;;9.90;2.90;;;;;;;12.15;71.12;102900.63;4993980;28;20074;-71
2023/05/30 07:32:22;;;;;;;9.35;3.03;;;;;;;12.19;70.60;102907.59;4997262;28;20276;-71
2023/05/30 07:34:47;;;;;;;8.68;3.00;;;;;;;12.18;70.24;102903.22;4998278;28;20038;-71
2023/05/30 07:37:13;;;;;;;11.23;3.20;;;;;;;12.19;70.10;102903.19;4998530;28;20044;-71
2023/05/30 07:39:38;;;;;;;13.25;3.08;;;;;;;12.29;70.60;102893.41;4998465;28;20125;-71
2023/05/30 07:42:04;;;;;;;23.27;3.90;;;;;;;12.37;70.10;102899.44;4998387;28;20057;-71
2023/05/30 07:44:30;;;;;;;10.10;2.90;;;;;;;12.52;70.16;102900.94;4998268;28;20034;-71
2023/05/30 07:46:55;;;;;;;8.18;2.92;;;;;;;12.60;70.30;102895.56;4997898;28;20117;-71
2023/05/30 07:49:21;;;;;;;10.10;3.35;;;;;;;12.64;69.48;102891.97;4998336;28;20046;-71
2023/05/30 07:51:48;;;;;;;9.93;3.08;;;;;;;12.76;69.58;102896.19;4997979;28;20034;-71
2023/05/30 07:54:13;;;;;;;16.42;3.55;;;;;;;12.83;69.47;102896.03;4998222;28;20077;-71
2023/05/30 07:56:38;;;;;;;9.18;2.55;;;;;;;12.88;69.90;102901.25;4996350;28;20361;-71
2023/05/30 07:59:04;;;;;;;15.57;3.55;;;;;;;12.96;69.35;102903.72;4994175;28;20034;-71
2023/05/30 08:01:30;;;;;;;11.60;3.20;;;;;;;13.04;68.44;102897.44;4993847;28;20338;-71
2023/05/30 08:03:55;;;;;;;10.73;3.30;;;;;;;13.12;68.32;102901.69;4997126;28;20234;-71
2023/05/30 08:06:21;;;;;;;11.63;3.13;;;;;;;13.15;68.41;102886.72;4993089;28;20269;-71
2023/05/30 08:08:46;;;;;;;13.43;3.13;;;;;;;13.20;68.59;102892.72;4995743;28;20105;-71
2023/05/30 08:11:14;;;;;;;11.57;3.03;;;;;;;13.23;67.67;102887.41;4996411;28;20042;-71
2023/05/30 08:13:40;;;;;;;8.02;2.92;;;;;;;13.33;67.49;102879.38;4988213;28;20058;-71
2023/05/30 08:16:09;;;;;;;11.27;3.50;;;;;;;13.39;67.70;102885.41;4997030;28;20577;-71
2023/05/30 08:18:35;;;;;;;14.18;3.30;;;;;;;13.44;67.45;102874.75;4995919;28;20042;-71
2023/05/30 08:21:01;;;;;;;8.55;3.50;;;;;;;13.53;67.99;102878.97;4994501;28;20069;-71
2023/05/30 08:23:26;;;;;;;9.63;2.83;;;;;;;13.53;67.67;102874.56;4994319;28;20035;-71
2023/05/30 08:25:52;;;;;;;8.70;3.40;;;;;;;13.57;66.91;102875.38;4992806;28;20125;-71
2023/05/30 08:28:18;;;;;;;12.82;3.38;;;;;;;13.63;67.66;102870.84;4987146;28;20068;-71
2023/05/30 08:30:48;;;;;;;13.95;3.45;;;;;;;13.75;67.27;102877.66;4992413;28;20116;-71
2023/05/30 08:33:15;;;;;;;14.27;4.63;;;;;;;13.76;67.28;102878.50;4988029;28;20370;-71
2023/05/30 08:35:40;;;;;;;11.10;3.33;;;;;;;13.66;67.34;102864.69;4986537;28;20060;-71
2023/05/30 08:38:05;;;;;;;15.65;4.07;;;;;;;13.61;67.77;102864.75;4990419;28;20030;-71
2023/05/30 08:40:33;;;;;;;12.73;3.58;;;;;;;13.58;67.73;102870.09;4987327;28;20062;-71
2023/05/30 08:42:58;;;;;;;14.90;3.88;;;;;;;13.53;68.62;102868.44;4996412;28;20364;-71
2023/05/30 08:45:24;;;;;;;14.25;3.30;;;;;;;13.60;68.69;102875.31;4990129;28;20073;-71
2023/05/30 08:47:54;;;;;;;11.52;3.50;;;;;;;13.62;68.46;102870.88;4990631;28;20117;-71
2023/05/30 08:50:21;;;;;;;12.85;3.55;;;;;;;13.65;67.98;102862.06;4991736;28;20076;-71
2023/05/30 08:52:51;;;;;;;8.38;4.00;;;;;;;13.68;68.15;102859.34;4996787;28;20066;-71
2023/05/30 08:55:25;;;;;;;20.85;3.78;;;;;;;13.78;68.47;102859.13;4993438;28;20050;-71
2023/05/30 08:58:08;;;;;;;10.02;3.20;;;;;;;13.80;66.75;102859.09;4996441;28;20034;-71
2023/05/30 09:00:34;;;;;;;15.15;3.45;;;;;;;13.81;66.45;102852.94;4989624;28;20066;-71
2023/05/30 09:03:05;;;;;;;16.33;3.70;;;;;;;13.91;68.10;102851.81;4992834;28;20405;-71
2023/05/30 09:05:32;;;;;;;10.00;3.65;;;;;;;13.92;68.05;102850.94;4989659;28;20041;-71
2023/05/30 09:07:59;;;;;;;15.52;3.78;;;;;;;13.95;67.56;102852.59;4996110;28;20049;-71
2023/05/30 09:10:25;;;;;;;8.98;2.95;;;;;;;13.97;67.04;102841.16;4992584;28;20085;-71
2023/05/30 09:12:51;;;;;;;8.50;3.65;;;;;;;14.01;67.13;102840.16;4984269;28;20047;-71
2023/05/30 09:15:16;;;;;;;10.75;3.25;;;;;;;14.08;66.67;102840.91;4988015;28;20253;-71
2023/05/30 09:17:43;;;;;;;17.83;4.10;;;;;;;14.11;65.34;102845.22;4999142;28;20054;-71
2023/05/30 09:20:14;;;;;;;7.32;3.38;;;;;;;14.16;65.83;102845.97;5000012;28;20073;-71
2023/05/30 09:22:41;;;;;;;10.20;3.03;;;;;;;14.16;65.36;102833.66;4998991;28;20034;-71
2023/05/30 09:25:07;;;;;;;10.15;3.63;;;;;;;14.20;65.35;102840.59;4994956;28;20038;-71
2023/05/30 09:27:35;;;;;;;11.73;3.58;;;;;;;14.24;64.15;102843.16;4999697;28;20054;-71
2023/05/30 09:30:10;;;;;;;11.90;3.50;;;;;;;14.28;64.10;102839.53;4999417;28;20037;-71
2023/05/30 09:32:38;;;;;;;13.20;3.83;;;;;;;14.28;64.69;102836.91;4998109;28;20053;-71
2023/05/30 09:35:06;;;;;;;14.38;3.22;;;;;;;14.32;64.69;102835.94;4997798;28;20329;-71
2023/05/30 09:37:43;;;;;;;11.82;2.95;;;;;;;14.37;64.99;102829.66;4998163;28;20038;-71
2023/05/30 09:40:15;;;;;;;16.02;3.60;;;;;;;14.38;64.55;102835.78;4990042;28;20029;-71
2023/05/30 09:42:40;;;;;;;11.55;3.10;;;;;;;14.37;64.72;102837.56;4990971;28;20229;-71
2023/05/30 09:45:08;;;;;;;7.13;3.35;;;;;;;14.40;64.55;102842.75;4991521;28;20042;-71
2023/05/30 09:47:47;;;;;;;12.63;3.33;;;;;;;14.44;64.75;102825.06;4995225;28;20080;-71
2023/05/30 09:50:14;;;;;;;9.90;3.25;;;;;;;14.51;64.84;102829.28;4990492;28;20038;-71
2023/05/30 09:52:40;;;;;;;11.13;3.22;;;;;;;14.53;64.04;102826.63;4995328;28;20344;-71
2023/05/30 09:55:09;;;;;;;9.98;3.38;;;;;;;14.58;62.96;102836.16;4996824;28;20048;-71
2023/05/30 09:57:37;;;;;;;10.55;3.10;;;;;;;14.58;62.84;102841.44;4997516;28;20042;-71
2023/05/30 10:00:11;;;;;;;9.82;3.75;;;;;;;14.62;65.04;102828.19;4996529;28;20214;-71
2023/05/30 10:02:39;;;;;;;9.63;3.22;;;;;;;14.64;64.29;102832.50;4997978;28;20145;-71
2023/05/30 10:05:05;;;;;;;13.23;3.50;;;;;;;14.63;64.60;102833.44;4997843;28;20088;-71
2023/05/30 10:07:31;;;;;;;10.73;4.07;;;;;;;14.66;65.92;102832.47;4999661;28;20297;-71
2023/05/30 10:09:57;;;;;;;12.35;3.33;;;;;;;14.70;64.24;102832.38;4993220;28;20056;-71
2023/05/30 10:12:23;;;;;;;6.72;3.28;;;;;;;14.72;64.01;102827.91;4997484;28;20084;-71
2023/05/30 10:14:49;;;;;;;9.93;3.20;;;;;;;14.71;63.57;102838.50;4997290;28;20400;-71
2023/05/30 10:17:18;;;;;;;15.88;3.88;;;;;;;14.72;64.50;102838.47;4996477;28;20237;-71
2023/05/30 10:19:56;;;;;;;13.38;3.40;;;;;;;14.75;65.81;102821.69;4996574;28;20313;-71
2023/05/30 10:22:25;;;;;;;18.92;3.83;;;;;;;14.78;65.70;102825.09;4997090;28;20042;-71
2023/05/30 10:24:51;;;;;;;7.70;3.50;;;;;;;14.87;67.07;102826.63;4995085;28;20027;-71
2023/05/30 10:27:27;;;;;;;13.10;3.50;;;;;;;14.88;65.54;102827.47;4996504;28;20080;-71
2023/05/30 10:30:04;;;;;;;11.85;4.00;;;;;;;14.94;67.00;102828.19;4980057;28;20035;-71
2023/05/30 10:32:33;;;;;;;6.57;3.47;;;;;;;14.98;66.78;102832.47;4992397;28;20121;-71
2023/05/30 10:35:05;;;;;;;9.48;3.28;;;;;;;15.03;66.92;102835.00;4991468;28;20076;-71
2023/05/30 10:37:33;;;;;;;9.15;3.63;;;;;;;15.04;66.41;102828.78;4996648;28;20356;-71
2023/05/30 10:40:11;;;;;;;5.68;3.20;;;;;;;15.11;65.77;102819.78;4993775;28;20346;-71
2023/05/30 10:42:59;;;;;;;9.38;3.33;;;;;;;15.19;65.66;102831.91;4997287;28;20118;-71
2023/05/30 10:45:49;;;;;;;5.28;3.35;;;;;;;15.22;65.47;102829.19;4992163;28;20360;-71
2023/05/30 10:48:20;;;;;;;5.93;3.05;;;;;;;15.25;65.29;102823.84;4995549;28;20372;-71
2023/05/30 10:50:50;;;;;;;11.90;3.85;;;;;;;15.23;66.25;102836.22;4986100;28;20038;-71
2023/05/30 10:53:19;;;;;;;10.45;3.53;;;;;;;15.18;66.56;102830.19;4990006;28;20038;-71
2023/05/30 10:55:46;;;;;;;7.28;3.17;;;;;;;15.24;66.58;102832.66;4993728;28;20211;-71
2023/05/30 10:58:37;;;;;;;7.60;3.38;;;;;;;15.16;66.24;102824.97;4996407;28;20042;-71
2023/05/30 11:01:21;;;;;;;9.82;3.58;;;;;;;15.19;67.81;102824.88;4989848;28;20445;-71
2023/05/30 11:03:46;;;;;;;7.15;3.20;;;;;;;15.09;67.22;102821.63;4990208;28;20040;-71
2023/05/30 11:06:14;;;;;;;9.48;3.03;;;;;;;15.14;67.79;102825.00;4994666;28;20062;-71
2023/05/30 11:08:40;;;;;;;6.18;2.92;;;;;;;15.16;68.32;102825.81;4989035;28;20046;-71
2023/05/30 11:11:19;;;;;;;7.60;3.30;;;;;;;15.14;68.79;102827.63;4991125;28;20046;-71
2023/05/30 11:13:46;;;;;;;6.45;2.63;;;;;;;15.14;68.81;102827.63;4995342;28;20054;-71
2023/05/30 11:16:25;;;;;;;6.75;2.90;;;;;;;15.04;68.85;102810.31;4992428;28;20049;-71
2023/05/30 11:18:53;;;;;;;3.63;2.58;;;;;;;15.07;68.82;102820.81;4996723;28;20386;-71
2023/05/30 11:21:55;;;;;;;4.80;2.50;;;;;;;15.08;67.45;102817.25;4995537;28;20592;-71
2023/05/30 11:24:20;;;;;;;6.45;3.28;;;;;;;15.13;68.67;102820.66;4996172;28;20241;-71
2023/05/30 11:27:07;;;;;;;11.00;3.53;;;;;;;15.08;68.90;102803.19;4988594;28;20034;-71